»·PEaware :: N96WF 1L1-2O7

N96WF :: 1L1-2O7

FLIGHT INFORMATION

Flight Status: Arrived
Operator: Privately registered:
United States
More flights under this callsign
Pilot: Jeff S. (11988)
Aircraft: BEECH AIRCRAFT BARON
(BE58)
More flights by this aircraft type
Origin: 1L1 Lincoln Co
United States
Destination: 2O7 Independence
United States
More flights between these airports :: More routes between these airports
Route: ILC V244 TPH OAL
File this flight plan on PilotEdge
Remarks: Next step in the Alphabet Challenge
Altitude:
(Current/Filed)
12,500ft
Speed:
(Current/Filed)
168kts
Departed: 20-Nov-16 02:52 PM
Arrived: 20-Nov-16 04:29 PM
Distance/Time
Traveled:
190nm/1:37
Distance/Time
To Go:
Arrived

Flight Plot

Page will automatically refresh every two minutes.

Flight plan parsing failed; only flown route is shown


Map Options




Map Legend


Flown Route
Filed Route
Departure Airport
Arrival Airport
Navaid (VOR, NDB)
Fix

Horizontal Profiles

Position Reports

Time Latitude Longitude Heading Altitude Ground
Speed
20-Nov-16 13:45 37.787518 -114.420843 357 4831ft 0kts
20-Nov-16 13:46 37.787518 -114.420843 357 4831ft 0kts
20-Nov-16 13:47 37.787518 -114.420843 357 4831ft 0kts
20-Nov-16 13:48 37.787518 -114.420843 357 4831ft 0kts
20-Nov-16 13:49 37.787518 -114.420843 357 4831ft 0kts
20-Nov-16 13:50 37.787518 -114.420843 357 4831ft 0kts
20-Nov-16 13:51 37.787518 -114.420843 357 4831ft 0kts
20-Nov-16 13:52 37.787518 -114.420843 357 4831ft 0kts
20-Nov-16 13:53 37.787518 -114.420843 357 4831ft 0kts
20-Nov-16 13:54 37.787518 -114.420843 357 4831ft 0kts
20-Nov-16 13:55 37.787518 -114.420843 357 4831ft 0kts
20-Nov-16 13:56 37.787518 -114.420843 357 4831ft 0kts
20-Nov-16 13:57 37.787518 -114.420843 357 4831ft 0kts
20-Nov-16 13:58 37.787518 -114.420843 357 4831ft 0kts
20-Nov-16 13:59 37.787518 -114.420843 357 4831ft 0kts
20-Nov-16 14:00 37.787518 -114.420843 357 4831ft 0kts
20-Nov-16 14:01 37.787518 -114.420843 357 4831ft 0kts
20-Nov-16 14:03 37.787518 -114.420843 357 4831ft 0kts
20-Nov-16 14:04 37.787518 -114.420843 357 4831ft 0kts
20-Nov-16 14:05 37.787518 -114.420843 357 4831ft 0kts
20-Nov-16 14:06 37.787518 -114.420843 357 4831ft 0kts
20-Nov-16 14:07 37.787518 -114.420843 357 4831ft 0kts
20-Nov-16 14:08 37.787518 -114.420843 357 4831ft 0kts
20-Nov-16 14:09 37.787518 -114.420843 357 4831ft 0kts
20-Nov-16 14:10 37.787518 -114.420843 357 4831ft 0kts
20-Nov-16 14:11 37.787518 -114.420843 357 4831ft 0kts
20-Nov-16 14:12 37.787518 -114.420843 357 4831ft 0kts
20-Nov-16 14:13 37.787518 -114.420843 357 4831ft 0kts
20-Nov-16 14:14 37.787518 -114.420843 357 4831ft 0kts
20-Nov-16 14:15 37.787518 -114.420843 357 4831ft 0kts
20-Nov-16 14:16 37.787518 -114.420843 357 4831ft 0kts
20-Nov-16 14:17 37.787518 -114.420843 357 4831ft 0kts
20-Nov-16 14:18 37.787518 -114.420843 357 4831ft 0kts
20-Nov-16 14:19 37.787518 -114.420843 357 4831ft 0kts
20-Nov-16 14:20 37.787518 -114.420843 357 4831ft 0kts
20-Nov-16 14:21 37.787518 -114.420843 357 4831ft 0kts
20-Nov-16 14:22 37.787518 -114.420843 357 4831ft 0kts
20-Nov-16 14:23 37.787518 -114.420843 357 4831ft 0kts
20-Nov-16 14:24 37.787518 -114.420843 357 4831ft 0kts
20-Nov-16 14:25 37.787518 -114.420843 357 4831ft 0kts
20-Nov-16 14:26 37.787518 -114.420843 357 4831ft 0kts
20-Nov-16 14:27 37.787518 -114.420843 357 4831ft 0kts
20-Nov-16 14:28 37.787518 -114.420843 357 4831ft 0kts
20-Nov-16 14:29 37.787518 -114.420843 357 4831ft 0kts
20-Nov-16 14:30 37.787518 -114.420843 357 4831ft 0kts
20-Nov-16 14:31 37.787518 -114.420843 357 4831ft 0kts
20-Nov-16 14:31 37.787518 -114.420843 357 4831ft 0kts
20-Nov-16 14:32 37.787518 -114.420843 357 4831ft 0kts
20-Nov-16 14:34 37.787518 -114.420843 357 4831ft 0kts
20-Nov-16 14:34 37.787518 -114.420843 357 4831ft 0kts
20-Nov-16 14:35 37.787518 -114.420843 357 4831ft 0kts
20-Nov-16 14:36 37.787518 -114.420843 357 4831ft 0kts
20-Nov-16 14:37 37.787518 -114.420843 357 4831ft 0kts
20-Nov-16 14:38 37.787518 -114.420843 357 4831ft 0kts
20-Nov-16 14:39 37.787518 -114.420843 357 4831ft 0kts
20-Nov-16 14:40 37.787518 -114.420843 357 4831ft 0kts
20-Nov-16 14:41 37.787518 -114.420843 357 4831ft 0kts
20-Nov-16 14:42 37.787518 -114.420843 357 4831ft 0kts
20-Nov-16 14:43 37.787518 -114.420843 357 4831ft 0kts
20-Nov-16 14:44 37.787518 -114.420843 357 4831ft 0kts
20-Nov-16 14:45 37.806930 -114.418557 6 5286ft 143kts
20-Nov-16 14:46 37.850766 -114.410776 13 6425ft 173kts
20-Nov-16 14:47 37.897949 -114.398149 12 7784ft 167kts
20-Nov-16 14:48 37.942421 -114.387602 9 9096ft 161kts
20-Nov-16 14:49 37.987017 -114.378899 6 10309ft 163kts
20-Nov-16 14:50 38.028278 -114.395297 336 11404ft 164kts
20-Nov-16 14:51 38.079795 -114.402615 357 11542ft 202kts
20-Nov-16 14:52 38.137340 -114.400553 0 11534ft 216kts
20-Nov-16 14:53 38.198449 -114.397204 0 11469ft 221kts
20-Nov-16 14:54 38.247702 -114.416535 268 11472ft 180kts
20-Nov-16 14:55 38.243940 -114.479570 258 11487ft 179kts
20-Nov-16 14:56 38.239335 -114.542362 258 11486ft 175kts
20-Nov-16 14:57 38.234769 -114.604072 258 11487ft 176kts
20-Nov-16 14:58 38.230207 -114.666000 258 11489ft 178kts
20-Nov-16 14:59 38.225722 -114.728995 257 11488ft 179kts
20-Nov-16 15:00 38.221057 -114.792042 257 11488ft 178kts
20-Nov-16 15:01 38.216287 -114.854787 257 11487ft 176kts
20-Nov-16 15:02 38.211498 -114.917380 257 11488ft 178kts
20-Nov-16 15:03 38.206736 -114.979470 257 11487ft 173kts
20-Nov-16 15:05 38.201909 -115.041552 257 11488ft 177kts
20-Nov-16 15:06 38.197008 -115.104506 257 11488ft 179kts
20-Nov-16 15:07 38.192212 -115.165906 257 11486ft 171kts
20-Nov-16 15:08 38.187495 -115.225451 257 11487ft 168kts
20-Nov-16 15:09 38.182935 -115.284145 255 11486ft 164kts
20-Nov-16 15:10 38.178273 -115.341364 255 11485ft 161kts
20-Nov-16 15:11 38.173741 -115.397668 255 11613ft 155kts
20-Nov-16 15:12 38.169482 -115.450389 254 12048ft 147kts
20-Nov-16 15:13 38.165554 -115.499272 253 12714ft 130kts
20-Nov-16 15:14 38.161817 -115.544076 252 13281ft 126kts
20-Nov-16 15:15 38.157683 -115.592138 254 13423ft 148kts
20-Nov-16 15:16 38.153455 -115.644618 254 13418ft 148kts
20-Nov-16 15:17 38.149373 -115.696119 253 13425ft 149kts
20-Nov-16 15:18 38.145036 -115.749117 253 13424ft 151kts
20-Nov-16 15:19 38.140639 -115.802306 252 13423ft 151kts
20-Nov-16 15:20 38.136140 -115.855283 252 13423ft 151kts
20-Nov-16 15:21 38.131626 -115.908337 252 13395ft 152kts
20-Nov-16 15:22 38.126825 -115.963822 253 13102ft 164kts
20-Nov-16 15:23 38.121826 -116.022501 254 12752ft 168kts
20-Nov-16 15:24 38.116673 -116.082229 254 12443ft 174kts
20-Nov-16 15:25 38.111162 -116.145444 255 12074ft 186kts
20-Nov-16 15:26 38.105406 -116.211673 255 11602ft 189kts
20-Nov-16 15:27 38.099711 -116.277467 254 11419ft 184kts
20-Nov-16 15:28 38.093972 -116.341740 254 11421ft 181kts
20-Nov-16 15:29 38.088280 -116.405304 254 11421ft 181kts
20-Nov-16 15:30 38.082569 -116.468872 254 11421ft 180kts
20-Nov-16 15:31 38.076857 -116.532120 254 11420ft 180kts
20-Nov-16 15:32 38.071100 -116.595483 254 11420ft 180kts
20-Nov-16 15:33 38.065427 -116.657583 253 11422ft 180kts
20-Nov-16 15:34 38.059836 -116.720927 253 11422ft 180kts
20-Nov-16 15:34 38.055024 -116.773758 253 11423ft 180kts
20-Nov-16 15:35 38.049167 -116.836686 253 11422ft 178kts
20-Nov-16 15:37 38.042339 -116.909626 253 11421ft 178kts
20-Nov-16 15:37 38.037443 -116.961655 253 11421ft 178kts
20-Nov-16 15:38 38.031544 -117.024005 253 11421ft 178kts
20-Nov-16 15:39 38.028790 -117.087423 257 11421ft 180kts
20-Nov-16 15:40 38.026554 -117.151002 257 11421ft 180kts
20-Nov-16 15:41 38.024289 -117.214623 257 11420ft 180kts
20-Nov-16 15:42 38.021927 -117.278115 258 11420ft 180kts
20-Nov-16 15:43 38.019701 -117.340710 258 11420ft 176kts
20-Nov-16 15:44 38.017345 -117.403582 258 11421ft 180kts
20-Nov-16 15:45 38.014954 -117.467213 258 11420ft 181kts
20-Nov-16 15:46 38.012510 -117.531229 258 11420ft 181kts
20-Nov-16 15:47 38.010026 -117.595278 258 11420ft 181kts
20-Nov-16 15:48 38.007580 -117.657525 257 11422ft 181kts
20-Nov-16 15:49 38.005249 -117.721787 257 11422ft 182kts
20-Nov-16 15:50 37.987642 -117.772247 202 11426ft 165kts
20-Nov-16 15:51 37.943832 -117.791837 199 11422ft 167kts
20-Nov-16 15:52 37.899494 -117.808952 198 11422ft 168kts
20-Nov-16 15:53 37.855406 -117.825415 198 11429ft 169kts
20-Nov-16 15:54 37.809573 -117.842420 197 11337ft 173kts
20-Nov-16 15:55 37.763115 -117.859507 198 11336ft 175kts
20-Nov-16 15:56 37.716490 -117.876970 197 11336ft 173kts
20-Nov-16 15:57 37.670473 -117.893849 196 11335ft 171kts
20-Nov-16 15:58 37.633690 -117.907254 196 11342ft 122kts
20-Nov-16 15:59 37.596668 -117.920902 196 11339ft 150kts
20-Nov-16 16:00 37.554943 -117.936264 196 11336ft 159kts
20-Nov-16 16:01 37.511954 -117.952054 196 11335ft 162kts
20-Nov-16 16:02 37.468525 -117.967981 196 11334ft 163kts
20-Nov-16 16:03 37.425025 -117.983914 196 11333ft 163kts
20-Nov-16 16:04 37.381387 -117.999878 196 11333ft 163kts
20-Nov-16 16:05 37.337913 -118.015769 196 11331ft 160kts
20-Nov-16 16:06 37.295629 -118.031198 196 11332ft 157kts
20-Nov-16 16:07 37.253897 -118.046418 196 11332ft 155kts
20-Nov-16 16:09 37.211822 -118.061837 194 11333ft 160kts
20-Nov-16 16:10 37.168548 -118.077486 194 11332ft 162kts
20-Nov-16 16:11 37.125167 -118.093242 194 11332ft 163kts
20-Nov-16 16:12 37.081504 -118.109087 194 11331ft 163kts
20-Nov-16 16:13 37.037777 -118.124935 194 11331ft 163kts
20-Nov-16 16:14 36.998687 -118.144129 204 10759ft 131kts
20-Nov-16 16:15 36.965832 -118.166266 191 9257ft 132kts
20-Nov-16 16:16 36.930554 -118.175161 185 7915ft 129kts
20-Nov-16 16:17 36.897996 -118.181305 177 6801ft 113kts
20-Nov-16 16:18 36.868851 -118.173918 149 5664ft 133kts
20-Nov-16 16:19 36.835351 -118.148412 148 5651ft 139kts
20-Nov-16 16:20 36.806404 -118.144870 215 5259ft 112kts
20-Nov-16 16:21 36.792916 -118.175820 271 4722ft 113kts
20-Nov-16 16:22 36.815516 -118.206187 338 3903ft 100kts
20-Nov-16 16:23 36.819416 -118.209658 140 3904ft 21kts
20-Nov-16 16:24 36.813311 -118.204780 156 3903ft 29kts
20-Nov-16 16:25 36.811165 -118.203518 152 3903ft 0kts
20-Nov-16 16:26 36.811165 -118.203518 152 3903ft 0kts
20-Nov-16 16:27 36.811157 -118.203513 159 3903ft 0kts
20-Nov-16 16:28 36.811157 -118.203513 159 3903ft 0kts
20-Nov-16 16:29 36.811034 -118.203443 157 3903ft 6kts
20-Nov-16 16:30 36.809094 -118.202975 304 3903ft 13kts
20-Nov-16 16:31 36.815522 -118.206688 332 3903ft 25kts
20-Nov-16 16:32 36.818156 -118.208221 18 3903ft 0kts
20-Nov-16 16:33 36.818156 -118.208221 18 3903ft 0kts
20-Nov-16 16:34 36.818156 -118.208221 18 3903ft 0kts
20-Nov-16 16:35 36.818156 -118.208221 18 3903ft 0kts
20-Nov-16 16:36 36.818156 -118.208221 18 3903ft 0kts
20-Nov-16 16:37 36.818156 -118.208221 18 3903ft 0kts

Navigation Log

Ident Type
Flight plan parsing failed, navigation log unavailable